首页
METAR-TAF:

METAR-TAF

机场 :

Ulukhaktok, 西北特區, 加拿大

纬度: 70-46N, 经度: 117-48W, 海拔: 36米

当前天气观测

该预报发布于31分钟前的19:00 UTC
风速8节,风向西转西北
温度 -24°C
湿度 76%
气压 1009 hPa
能見度: 3.2公里
阴天层高于8000英尺
小雪

METAR: CYHI 281900Z 30008KT 2SM -SN OVC080 M24/M27 A2979 RMK SN5AS3 SLP097

时间: 12:31 (19:31 UTC)

预报

该预报发布于53分钟前的18:38 UTC
预报有效从28日的 19点(UTC)到 29日的 01点(UTC)
风速8节,风向西北
能見度: 1.6公里
阴天层高于6000英尺
小雪
短暂存在
从 28日的 19点(UTC)到 28日的 21点(UTC)
能見度: 8.0公里
小雪
从 28日的 2100点(UTC)
风速8节,风向北转西北
能見度: 10公里
散云层高于6000英尺
短暂存在
从 28日的 21点(UTC)到 29日的 01点(UTC)
能見度: 6.4公里
冰针

TAF: CYHI 281838Z 2819/2901 31008KT 1SM -SN OVC060 TEMPO 2819/2821 5SM -SN FM282100 33008KT P6SM SCT060 TEMPO 2821/2901 4SM IC RMK NXT FCST WILL BE ISSUED AT 291645Z

超过4000个机场的气象观测和天气预报(METAR&TAF报告)。

可查询的气象台以黄色和红色小点在地图上表示。

将鼠标移到小点上方,可查看气象台名称。

然后点击查看天气观测和预报。

如需切换地图:点击带黑十字的绿色按钮放大地图;点击带横线的绿色按钮缩小地图;或者点击绿色箭头查看邻近地区的地图。


METAR-TAF: